Time;durP1;ratioP1;P1;durP2;ratioP2;P2;SDS_P1;SDS_P2;PMS_P1;PMS_P2;Temp;Humidity;BMP_temperature;BMP_pressure;BME280_temperature;BME280_humidity;BME280_pressure;Samples;Min_cycle;Max_cycle;Signal;HPM_P1;HPM_P2
2021/01/28 00:00:44;;;;;;;;;;;0.30;99.90;;;;;;5085751;28;19916;-66
2021/01/28 00:03:11;;;;;;;;;;;0.30;99.90;;;;;;5078940;28;19923;-66
2021/01/28 00:05:38;;;;;;;;;;;0.30;99.90;;;;;;5073101;28;20384;-66
2021/01/28 00:08:04;;;;;;;;;;;0.30;99.90;;;;;;5078028;28;19920;-66
2021/01/28 00:10:30;;;;;;;;;;;0.40;99.90;;;;;;5078827;28;19921;-66
2021/01/28 00:12:56;;;;;;;;;;;0.30;99.90;;;;;;5081781;28;20303;-66
2021/01/28 00:15:23;;;;;;;;;;;0.30;99.90;;;;;;5082654;28;19917;-66
2021/01/28 00:17:48;;;;;;;;;;;0.30;99.90;;;;;;5082702;28;20393;-66
2021/01/28 00:20:22;;;;;;;;;;;0.30;99.90;;;;;;5076133;28;19920;-66
2021/01/28 00:22:48;;;;;;;;;;;0.30;99.90;;;;;;5079140;28;19927;-66
2021/01/28 00:25:16;;;;;;;;;;;0.30;99.90;;;;;;5083371;28;19913;-66
2021/01/28 00:27:42;;;;;;;;;;;0.30;99.90;;;;;;5078085;28;19936;-66
2021/01/28 00:30:09;;;;;;;;;;;0.30;99.90;;;;;;5059600;28;20399;-66
2021/01/28 00:32:35;;;;;;;;;;;0.20;99.90;;;;;;5072984;28;20404;-66
2021/01/28 00:35:01;;;;;;;;;;;0.20;99.90;;;;;;5073758;28;19923;-66
2021/01/28 00:37:27;;;;;;;;;;;0.20;99.90;;;;;;5079830;28;19925;-66
2021/01/28 00:39:53;;;;;;;;;;;0.20;99.90;;;;;;5075012;28;19916;-66
2021/01/28 00:42:19;;;;;;;;;;;0.20;99.90;;;;;;5074388;28;19930;-66
2021/01/28 00:44:45;;;;;;;;;;;0.20;99.90;;;;;;5075696;28;19916;-66
2021/01/28 00:47:11;;;;;;;;;;;0.20;99.90;;;;;;5078386;28;19917;-66
2021/01/28 00:49:37;;;;;;;;;;;0.10;99.90;;;;;;5077330;28;19924;-66
2021/01/28 00:52:03;;;;;;;;;;;0.10;99.90;;;;;;5079901;28;20373;-66
2021/01/28 00:54:29;;;;;;;;;;;0.00;99.90;;;;;;5075099;28;20000;-66
2021/01/28 00:56:55;;;;;;;;;;;0.00;99.90;;;;;;5076670;28;19928;-66
2021/01/28 00:59:20;;;;;;;;;;;-0.10;99.90;;;;;;5073613;28;20339;-66
2021/01/28 01:01:46;;;;;;;;;;;-0.10;99.90;;;;;;5085494;28;19920;-66
2021/01/28 01:04:12;;;;;;;;;;;-0.20;99.90;;;;;;5084447;28;20258;-66
2021/01/28 01:06:38;;;;;;;;;;;-0.30;99.90;;;;;;5084997;28;20352;-66
2021/01/28 01:09:04;;;;;;;;;;;-0.30;99.90;;;;;;5079083;28;20280;-66
2021/01/28 01:11:30;;;;;;;;;;;-0.30;99.90;;;;;;5077324;28;19912;-66
2021/01/28 01:13:56;;;;;;;;;;;-0.40;99.90;;;;;;5090291;28;19964;-66
2021/01/28 01:16:22;;;;;;;;;;;-0.40;99.90;;;;;;5079093;28;20016;-66
2021/01/28 01:18:48;;;;;;;;;;;-0.40;99.90;;;;;;5078331;28;20365;-66
2021/01/28 01:21:14;;;;;;;;;;;-0.50;99.90;;;;;;5079570;28;19913;-66
2021/01/28 01:23:40;;;;;;;;;;;-0.50;99.90;;;;;;5076402;28;19932;-66
2021/01/28 01:26:06;;;;;;;;;;;-0.50;99.90;;;;;;5084006;28;19925;-66
2021/01/28 01:28:32;;;;;;;;;;;-0.50;99.90;;;;;;5089026;28;19920;-66
2021/01/28 01:30:58;;;;;;;;;;;-0.60;99.90;;;;;;5090957;28;20381;-66
2021/01/28 01:33:24;;;;;;;;;;;-0.60;99.90;;;;;;5085967;28;19916;-66
2021/01/28 01:35:50;;;;;;;;;;;-0.60;99.90;;;;;;5061450;28;19916;-66
2021/01/28 01:38:16;;;;;;;;;;;-0.60;99.90;;;;;;5087364;28;20274;-66
2021/01/28 01:40:50;;;;;;;;;;;-0.60;99.90;;;;;;5083724;28;19916;-66
2021/01/28 01:43:16;;;;;;;;;;;-0.70;99.90;;;;;;5079622;28;19919;-66
2021/01/28 01:45:49;;;;;;;;;;;-0.70;99.90;;;;;;5084819;28;19924;-66
2021/01/28 01:48:19;;;;;;;;;;;-0.70;99.90;;;;;;5078799;28;19935;-66
2021/01/28 01:50:46;;;;;;;;;;;-0.80;99.90;;;;;;5083634;28;19912;-66
2021/01/28 01:53:16;;;;;;;;;;;-0.80;99.90;;;;;;5083296;28;20369;-66
2021/01/28 01:55:43;;;;;;;;;;;-0.80;99.90;;;;;;5077118;28;20391;-66
2021/01/28 01:58:09;;;;;;;;;;;-0.90;99.90;;;;;;5077348;28;20273;-67
2021/01/28 02:00:35;;;;;;;;;;;-0.90;99.90;;;;;;5077812;28;19916;-67
2021/01/28 02:03:02;;;;;;;;;;;-0.90;99.90;;;;;;5078488;28;20395;-66
2021/01/28 02:05:29;;;;;;;;;;;-0.90;99.90;;;;;;5079645;28;19919;-67
2021/01/28 02:07:55;;;;;;;;;;;-0.90;99.90;;;;;;5064092;28;19935;-67
2021/01/28 02:10:21;;;;;;;;;;;-0.90;99.90;;;;;;5080878;28;19913;-67
2021/01/28 02:12:47;;;;;;;;;;;-0.80;99.90;;;;;;5077363;28;19950;-67
2021/01/28 02:15:13;;;;;;;;;;;-0.90;99.90;;;;;;5078080;28;20323;-67
2021/01/28 02:17:39;;;;;;;;;;;-0.80;99.90;;;;;;5082565;28;19932;-66
2021/01/28 02:20:20;;;;;;;;;;;-0.90;99.90;;;;;;5077408;28;20369;-66
2021/01/28 02:22:48;;;;;;;;;;;-0.80;99.90;;;;;;5086282;28;20249;-67
2021/01/28 02:25:33;;;;;;;;;;;-0.80;99.90;;;;;;5074839;28;19920;-67
2021/01/28 02:28:00;;;;;;;;;;;-0.80;99.90;;;;;;5076039;28;19929;-66
2021/01/28 02:30:26;;;;;;;;;;;-0.90;99.90;;;;;;5081654;28;19920;-66
2021/01/28 02:32:52;;;;;;;;;;;-0.80;99.90;;;;;;5067534;28;20401;-66
2021/01/28 02:35:23;;;;;;;;;;;-0.80;99.90;;;;;;5087109;28;19921;-66
2021/01/28 02:37:49;;;;;;;;;;;-0.80;99.90;;;;;;5075992;28;19921;-66
2021/01/28 02:40:15;;;;;;;;;;;-0.80;99.90;;;;;;5076849;28;19936;-66
2021/01/28 02:42:41;;;;;;;;;;;-0.80;99.90;;;;;;5080053;28;19936;-66
2021/01/28 02:45:08;;;;;;;;;;;-0.80;99.90;;;;;;5080947;28;19962;-67
2021/01/28 02:47:34;;;;;;;;;;;-0.80;99.90;;;;;;5090758;28;19916;-66
2021/01/28 02:50:00;;;;;;;;;;;-0.90;99.90;;;;;;5086447;28;19931;-66
2021/01/28 02:52:26;;;;;;;;;;;-0.90;99.90;;;;;;5081198;28;19916;-67
2021/01/28 02:54:52;;;;;;;;;;;-0.90;99.90;;;;;;5078069;28;19919;-66
2021/01/28 02:57:18;;;;;;;;;;;-0.90;99.90;;;;;;5076857;28;19929;-66
2021/01/28 02:59:44;;;;;;;;;;;-0.90;99.90;;;;;;5083353;28;19912;-66
2021/01/28 03:02:11;;;;;;;;;;;-1.00;99.90;;;;;;5078012;28;19916;-66
2021/01/28 03:04:37;;;;;;;;;;;-1.00;99.90;;;;;;5081749;28;19917;-66
2021/01/28 03:07:06;;;;;;;;;;;-1.00;99.90;;;;;;5073284;28;20353;-66
2021/01/28 03:09:32;;;;;;;;;;;-1.00;99.90;;;;;;5082218;28;19917;-66
2021/01/28 03:11:58;;;;;;;;;;;-1.00;99.90;;;;;;5085520;28;19921;-66
2021/01/28 03:14:24;;;;;;;;;;;-1.00;99.90;;;;;;5078543;28;20051;-67
2021/01/28 03:16:50;;;;;;;;;;;-0.90;99.90;;;;;;5082073;28;20371;-66
2021/01/28 03:19:17;;;;;;;;;;;-0.90;99.90;;;;;;5086174;28;20021;-66
2021/01/28 03:21:43;;;;;;;;;;;-0.90;99.90;;;;;;5075547;28;20855;-66
2021/01/28 03:24:09;;;;;;;;;;;-0.90;99.90;;;;;;5088589;28;19912;-66
2021/01/28 03:26:35;;;;;;;;;;;-0.90;99.90;;;;;;5084074;28;19924;-66
2021/01/28 03:29:01;;;;;;;;;;;-0.90;99.90;;;;;;5069340;28;19924;-66
2021/01/28 03:31:27;;;;;;;;;;;-0.90;99.90;;;;;;5079665;28;19916;-66
2021/01/28 03:33:53;;;;;;;;;;;-1.00;99.90;;;;;;5105245;28;19990;-66
2021/01/28 03:36:19;;;;;;;;;;;-1.00;99.90;;;;;;5074498;28;19962;-67
2021/01/28 03:38:45;;;;;;;;;;;-1.00;99.90;;;;;;5082806;28;19928;-67
2021/01/28 03:41:10;;;;;;;;;;;-1.00;99.90;;;;;;5083154;28;19919;-66
2021/01/28 03:43:36;;;;;;;;;;;-1.10;99.90;;;;;;5082745;28;19923;-66
2021/01/28 03:46:02;;;;;;;;;;;-1.10;99.90;;;;;;5078904;28;19917;-66
2021/01/28 03:48:28;;;;;;;;;;;-1.10;99.90;;;;;;5082806;28;20006;-66
2021/01/28 03:50:54;;;;;;;;;;;-1.10;99.90;;;;;;5078642;28;19924;-66
2021/01/28 03:53:20;;;;;;;;;;;-1.20;99.90;;;;;;5080430;28;19912;-66
2021/01/28 03:55:46;;;;;;;;;;;-1.30;99.90;;;;;;5080570;28;19934;-66
2021/01/28 03:58:12;;;;;;;;;;;-1.30;99.90;;;;;;5079004;28;19928;-66
2021/01/28 04:00:38;;;;;;;;;;;-1.40;99.90;;;;;;5084818;28;19920;-66
2021/01/28 04:03:04;;;;;;;;;;;-1.40;99.90;;;;;;5084840;28;19924;-66
2021/01/28 04:05:30;;;;;;;;;;;-1.50;99.90;;;;;;5076378;28;20342;-66
2021/01/28 04:07:56;;;;;;;;;;;-1.50;99.90;;;;;;5107354;28;19921;-66
2021/01/28 04:10:24;;;;;;;;;;;-1.50;99.90;;;;;;5080463;28;19923;-66
2021/01/28 04:12:49;;;;;;;;;;;-1.50;99.90;;;;;;5079976;28;19923;-66
2021/01/28 04:15:16;;;;;;;;;;;-1.50;99.90;;;;;;5081436;28;19916;-66
2021/01/28 04:17:42;;;;;;;;;;;-1.60;99.90;;;;;;5078058;28;19924;-66
2021/01/28 04:20:08;;;;;;;;;;;-1.60;99.90;;;;;;5084648;28;19920;-66
2021/01/28 04:22:34;;;;;;;;;;;-1.60;99.90;;;;;;5084703;28;19924;-66
2021/01/28 04:25:00;;;;;;;;;;;-1.60;99.90;;;;;;5084919;28;20010;-66
2021/01/28 04:27:26;;;;;;;;;;;-1.60;99.90;;;;;;5076747;28;19931;-66
2021/01/28 04:29:52;;;;;;;;;;;-1.60;99.90;;;;;;5076795;28;19920;-67
2021/01/28 04:32:18;;;;;;;;;;;-1.60;99.90;;;;;;5079555;28;20297;-67
2021/01/28 04:34:44;;;;;;;;;;;-1.60;99.90;;;;;;5083730;28;19919;-67
2021/01/28 04:37:10;;;;;;;;;;;-1.60;99.90;;;;;;5073702;28;19928;-67
2021/01/28 04:39:37;;;;;;;;;;;-1.50;99.90;;;;;;5081771;28;19920;-67
2021/01/28 04:42:04;;;;;;;;;;;-1.50;99.90;;;;;;5082841;28;19916;-67
2021/01/28 04:44:29;;;;;;;;;;;-1.50;99.90;;;;;;5077518;28;19916;-67
2021/01/28 04:46:56;;;;;;;;;;;-1.50;99.90;;;;;;5086599;28;19919;-70
2021/01/28 04:49:22;;;;;;;;;;;-1.50;99.90;;;;;;5078261;28;19975;-67
2021/01/28 04:51:49;;;;;;;;;;;-1.40;99.90;;;;;;5073870;28;19917;-67
2021/01/28 04:54:22;;;;;;;;;;;-1.40;99.90;;;;;;5079529;28;19912;-66
2021/01/28 04:56:49;;;;;;;;;;;-1.40;99.90;;;;;;5069970;28;19917;-66
2021/01/28 04:59:16;;;;;;;;;;;-1.40;99.90;;;;;;5071547;28;19916;-67
2021/01/28 05:01:42;;;;;;;;;;;-1.40;99.90;;;;;;5071165;28;19908;-67
2021/01/28 05:04:10;;;;;;;;;;;-1.40;99.90;;;;;;5053804;28;20544;-67
2021/01/28 05:06:36;;;;;;;;;;;-1.40;99.90;;;;;;5069562;28;20266;-67
2021/01/28 05:09:02;;;;;;;;;;;-1.40;99.90;;;;;;5072845;28;19923;-67
2021/01/28 05:11:29;;;;;;;;;;;-1.40;99.90;;;;;;5072583;28;20269;-67
2021/01/28 05:13:55;;;;;;;;;;;-1.50;99.90;;;;;;5071457;28;19908;-67
2021/01/28 05:16:30;;;;;;;;;;;-1.50;99.90;;;;;;5071594;28;19909;-67
2021/01/28 05:19:06;;;;;;;;;;;-1.40;99.90;;;;;;5086931;28;19939;-67
2021/01/28 05:21:42;;;;;;;;;;;-1.40;99.90;;;;;;5092633;28;19916;-69
2021/01/28 05:24:20;;;;;;;;;;;-1.40;99.90;;;;;;5067922;28;19920;-67
2021/01/28 05:26:46;;;;;;;;;;;-1.40;99.90;;;;;;5072300;28;20003;-67
2021/01/28 05:29:21;;;;;;;;;;;-1.40;99.90;;;;;;5071632;28;19942;-67
2021/01/28 05:31:47;;;;;;;;;;;-1.40;99.90;;;;;;5072349;28;19917;-67
2021/01/28 05:34:14;;;;;;;;;;;-1.40;99.90;;;;;;5071864;28;19912;-67
2021/01/28 05:36:52;;;;;;;;;;;-1.50;99.90;;;;;;5070945;28;19912;-67
2021/01/28 05:39:23;;;;;;;;;;;-1.50;99.90;;;;;;5071448;28;20399;-67
2021/01/28 05:41:49;;;;;;;;;;;-1.50;99.90;;;;;;5070711;28;19920;-67
2021/01/28 05:44:19;;;;;;;;;;;-1.50;99.90;;;;;;5072498;28;19919;-67
2021/01/28 05:46:45;;;;;;;;;;;-1.50;99.90;;;;;;5070847;28;19916;-67
2021/01/28 05:49:17;;;;;;;;;;;-1.50;99.90;;;;;;5071270;28;19909;-67
2021/01/28 05:51:43;;;;;;;;;;;-1.60;99.90;;;;;;5072239;28;19909;-68
2021/01/28 05:54:23;;;;;;;;;;;-1.60;99.90;;;;;;5071005;28;20129;-68
2021/01/28 05:57:07;;;;;;;;;;;-1.60;99.90;;;;;;5072271;28;19968;-67
2021/01/28 05:59:52;;;;;;;;;;;-1.60;99.90;;;;;;5072049;28;20370;-67
2021/01/28 06:02:42;;;;;;;;;;;-1.60;99.90;;;;;;5072274;28;20273;-67
2021/01/28 06:05:28;;;;;;;;;;;-1.60;99.90;;;;;;5073579;28;19931;-67
2021/01/28 06:08:14;;;;;;;;;;;-1.60;99.90;;;;;;5074374;28;19908;-67
2021/01/28 06:10:55;;;;;;;;;;;-1.60;99.90;;;;;;5074258;28;19919;-67
2021/01/28 06:13:40;;;;;;;;;;;-1.60;99.90;;;;;;5075573;28;19916;-67
2021/01/28 06:16:06;;;;;;;;;;;-1.70;99.90;;;;;;5075738;28;19909;-67
2021/01/28 06:18:51;;;;;;;;;;;-1.60;99.90;;;;;;5075479;28;19962;-67
2021/01/28 06:21:34;;;;;;;;;;;-1.60;99.90;;;;;;5075657;28;20281;-67
2021/01/28 06:24:19;;;;;;;;;;;-1.60;99.90;;;;;;5074037;28;19924;-67
2021/01/28 06:26:56;;;;;;;;;;;-1.60;99.90;;;;;;5082596;28;19931;-67
2021/01/28 06:29:35;;;;;;;;;;;-1.60;99.90;;;;;;5080708;28;19916;-67
2021/01/28 06:32:09;;;;;;;;;;;-1.60;99.90;;;;;;5082575;28;19912;-67
2021/01/28 06:34:38;;;;;;;;;;;-1.50;99.90;;;;;;5081177;28;19927;-67
2021/01/28 06:37:20;;;;;;;;;;;-1.50;99.90;;;;;;5077343;28;19913;-67
2021/01/28 06:39:46;;;;;;;;;;;-1.50;99.90;;;;;;5071937;28;19912;-67
2021/01/28 06:42:12;;;;;;;;;;;-1.50;99.90;;;;;;5073500;28;19912;-67
2021/01/28 06:44:53;;;;;;;;;;;-1.50;99.90;;;;;;5073698;28;19927;-67
2021/01/28 06:47:21;;;;;;;;;;;-1.50;99.90;;;;;;5077218;28;19911;-67
2021/01/28 06:50:06;;;;;;;;;;;-1.50;99.90;;;;;;5082707;28;20249;-67
2021/01/28 06:52:41;;;;;;;;;;;-1.50;99.90;;;;;;5081806;28;19912;-67
2021/01/28 06:55:13;;;;;;;;;;;-1.50;99.90;;;;;;5076863;28;19916;-67
2021/01/28 06:57:40;;;;;;;;;;;-1.50;99.90;;;;;;5076761;28;19925;-67
2021/01/28 07:00:10;;;;;;;;;;;-1.50;99.90;;;;;;5078500;28;19919;-67
2021/01/28 07:02:44;;;;;;;;;;;-1.40;99.90;;;;;;5078347;28;19912;-67
2021/01/28 07:05:15;;;;;;;;;;;-1.50;99.90;;;;;;5082816;28;19927;-67
2021/01/28 07:08:08;;;;;;;;;;;-1.50;99.90;;;;;;5079343;28;20289;-67
2021/01/28 07:10:33;;;;;;;;;;;-1.50;99.90;;;;;;5063861;28;19912;-67
2021/01/28 07:13:00;;;;;;;;;;;-1.50;99.90;;;;;;5081583;28;19912;-67
2021/01/28 07:15:26;;;;;;;;;;;-1.40;99.90;;;;;;5081683;28;19913;-67
2021/01/28 07:17:53;;;;;;;;;;;-1.40;99.90;;;;;;5081715;28;19927;-67
2021/01/28 07:20:25;;;;;;;;;;;-1.40;99.90;;;;;;5083913;28;19912;-67
2021/01/28 07:22:51;;;;;;;;;;;-1.40;99.90;;;;;;5081859;28;19912;-67
2021/01/28 07:25:25;;;;;;;;;;;-1.40;99.90;;;;;;5078913;28;20389;-67
2021/01/28 07:28:11;;;;;;;;;;;-1.40;99.90;;;;;;5080742;28;19924;-67
2021/01/28 07:30:40;;;;;;;;;;;-1.40;99.90;;;;;;5076073;28;20365;-67
2021/01/28 07:33:06;;;;;;;;;;;-1.40;99.90;;;;;;5073396;28;19919;-67
2021/01/28 07:35:42;;;;;;;;;;;-1.50;99.90;;;;;;5071849;28;20276;-67
2021/01/28 07:38:27;;;;;;;;;;;-1.50;99.90;;;;;;5071999;28;19931;-67
2021/01/28 07:40:54;;;;;;;;;;;-1.50;99.90;;;;;;5072767;28;20288;-66
2021/01/28 07:43:29;;;;;;;;;;;-1.50;99.90;;;;;;5072783;28;19912;-67
2021/01/28 07:46:16;;;;;;;;;;;-1.40;99.90;;;;;;5073030;28;19913;-67
2021/01/28 07:48:42;;;;;;;;;;;-1.40;99.90;;;;;;5067816;28;20300;-67
2021/01/28 07:51:26;;;;;;;;;;;-1.40;99.90;;;;;;5074086;28;19944;-67
2021/01/28 07:53:52;;;;;;;;;;;-1.40;99.90;;;;;;5082054;28;19920;-67
2021/01/28 07:56:37;;;;;;;;;;;-1.40;99.90;;;;;;5082693;28;19923;-67
2021/01/28 07:59:04;;;;;;;;;;;-1.40;99.90;;;;;;5081193;28;19924;-67
2021/01/28 08:01:30;;;;;;;;;;;-1.40;99.90;;;;;;5089644;28;19931;-67
2021/01/28 08:04:01;;;;;;;;;;;-1.40;99.90;;;;;;5081782;28;20365;-68
2021/01/28 08:06:27;;;;;;;;;;;-1.40;99.90;;;;;;5077649;28;20276;-67
2021/01/28 08:09:03;;;;;;;;;;;-1.40;99.90;;;;;;5083684;28;19912;-67
2021/01/28 08:11:29;;;;;;;;;;;-1.40;99.90;;;;;;5106178;28;19912;-68
2021/01/28 08:13:55;;;;;;;;;;;-1.40;99.90;;;;;;5081133;28;19908;-67
2021/01/28 08:16:23;;;;;;;;;;;-1.40;99.90;;;;;;5084653;28;19912;-68
2021/01/28 08:19:01;;;;;;;;;;;-1.40;99.90;;;;;;5083846;28;19917;-68
2021/01/28 08:21:28;;;;;;;;;;;-1.30;99.90;;;;;;5084007;28;19912;-67
2021/01/28 08:23:54;;;;;;;;;;;-1.30;99.90;;;;;;5073986;28;19909;-68
2021/01/28 08:26:27;;;;;;;;;;;-1.30;99.90;;;;;;5071235;28;20412;-67
2021/01/28 08:29:12;;;;;;;;;;;-1.30;99.90;;;;;;5071011;28;19913;-67
2021/01/28 08:31:40;;;;;;;;;;;-1.30;99.90;;;;;;5071707;28;19919;-67
2021/01/28 08:34:06;;;;;;;;;;;-1.30;99.90;;;;;;5071042;28;19912;-67
2021/01/28 08:36:33;;;;;;;;;;;-1.30;99.90;;;;;;5071198;28;19924;-67
2021/01/28 08:39:05;;;;;;;;;;;-1.30;99.90;;;;;;5072071;28;20289;-67
2021/01/28 08:41:31;;;;;;;;;;;-1.30;99.90;;;;;;5071807;28;19916;-67
2021/01/28 08:43:57;;;;;;;;;;;-1.30;99.90;;;;;;5071175;28;19928;-67
2021/01/28 08:46:23;;;;;;;;;;;-1.30;99.90;;;;;;5070463;28;19919;-66
2021/01/28 08:48:49;;;;;;;;;;;-1.30;99.90;;;;;;5072107;28;19921;-67
2021/01/28 08:51:25;;;;;;;;;;;-1.20;99.90;;;;;;5074025;28;19920;-67
2021/01/28 08:53:57;;;;;;;;;;;-1.20;99.90;;;;;;5078684;28;19919;-67
2021/01/28 08:56:23;;;;;;;;;;;-1.20;99.90;;;;;;5082022;28;19916;-67
2021/01/28 08:58:49;;;;;;;;;;;-1.20;99.90;;;;;;5082420;28;20312;-67
2021/01/28 09:01:15;;;;;;;;;;;-1.20;99.90;;;;;;5079413;28;19919;-67
2021/01/28 09:03:52;;;;;;;;;;;-1.20;99.90;;;;;;5052263;28;19951;-67
2021/01/28 09:06:18;;;;;;;;;;;-1.10;99.90;;;;;;5070784;28;20277;-67
2021/01/28 09:08:44;;;;;;;;;;;-1.10;99.90;;;;;;5071573;28;20008;-67
2021/01/28 09:11:16;;;;;;;;;;;-1.10;99.90;;;;;;5074527;28;20022;-67
2021/01/28 09:14:00;;;;;;;;;;;-1.10;99.90;;;;;;5080912;28;19924;-67
2021/01/28 09:16:26;;;;;;;;;;;-1.10;99.90;;;;;;5080864;28;20281;-67
2021/01/28 09:18:53;;;;;;;;;;;-1.10;99.90;;;;;;5081871;28;19920;-68
2021/01/28 09:21:20;;;;;;;;;;;-1.10;99.90;;;;;;5083669;28;19916;-68
2021/01/28 09:24:12;;;;;;;;;;;-1.10;99.90;;;;;;5073888;28;19916;-68
2021/01/28 09:26:39;;;;;;;;;;;-1.10;99.90;;;;;;5060080;28;19925;-68
2021/01/28 09:35:15;;;;;;;;;;;-1.00;99.90;;;;;;5082423;28;19927;-67
2021/01/28 09:37:42;;;;;;;;;;;-1.00;99.90;;;;;;5076490;28;19916;-68
2021/01/28 09:40:17;;;;;;;;;;;-0.90;99.90;;;;;;5051007;28;19920;-68
2021/01/28 09:42:43;;;;;;;;;;;-0.90;99.90;;;;;;5065757;28;20284;-68
2021/01/28 09:45:09;;;;;;;;;;;-0.90;99.90;;;;;;5074995;28;19917;-68
2021/01/28 09:47:35;;;;;;;;;;;-0.80;99.90;;;;;;5074654;28;19924;-68
2021/01/28 09:50:09;;;;;;;;;;;-0.80;99.90;;;;;;5073638;28;20357;-68
2021/01/28 09:52:39;;;;;;;;;;;-0.70;99.90;;;;;;5075043;28;19913;-68
2021/01/28 09:55:06;;;;;;;;;;;-0.60;99.90;;;;;;5074981;28;19923;-67
2021/01/28 09:57:32;;;;;;;;;;;-0.60;99.90;;;;;;5072953;28;20276;-68
2021/01/28 09:59:58;;;;;;;;;;;-0.60;99.90;;;;;;5074427;28;19916;-68
2021/01/28 10:02:34;;;;;;;;;;;-0.70;99.90;;;;;;5074823;28;19927;-68
2021/01/28 10:05:01;;;;;;;;;;;-0.70;99.90;;;;;;5064340;28;19913;-68
2021/01/28 10:07:26;;;;;;;;;;;-0.70;99.90;;;;;;5073835;28;19917;-68
2021/01/28 10:09:52;;;;;;;;;;;-0.70;99.90;;;;;;5075001;28;19912;-68
2021/01/28 10:12:18;;;;;;;;;;;-0.80;99.90;;;;;;5074407;28;20320;-68
2021/01/28 10:14:44;;;;;;;;;;;-0.70;99.90;;;;;;5073438;28;20369;-68
2021/01/28 10:23:17;;;;;;;;;;;-0.80;99.90;;;;;;5085974;28;19936;-68
2021/01/28 10:25:43;;;;;;;;;;;-0.70;99.90;;;;;;5074270;28;20353;-68
2021/01/28 10:28:09;;;;;;;;;;;-0.80;99.90;;;;;;5065764;28;20015;-68
2021/01/28 10:30:35;;;;;;;;;;;-0.80;99.90;;;;;;5074347;28;19920;-68
2021/01/28 10:33:01;;;;;;;;;;;-0.80;99.90;;;;;;5074047;28;20015;-68
2021/01/28 10:35:28;;;;;;;;;;;-0.70;99.90;;;;;;5073059;28;19924;-68
2021/01/28 10:37:54;;;;;;;;;;;-0.70;99.90;;;;;;5073060;28;20019;-68
2021/01/28 10:40:20;;;;;;;;;;;-0.70;99.90;;;;;;5075273;28;20385;-68
2021/01/28 10:42:46;;;;;;;;;;;-0.70;99.90;;;;;;5074839;28;20054;-68
2021/01/28 10:45:12;;;;;;;;;;;-0.70;99.90;;;;;;5073905;28;19912;-68
2021/01/28 10:47:38;;;;;;;;;;;-0.70;99.90;;;;;;5073759;28;19912;-68
2021/01/28 10:50:05;;;;;;;;;;;-0.70;99.90;;;;;;5071105;28;19919;-68
2021/01/28 10:52:30;;;;;;;;;;;-0.80;99.90;;;;;;5073311;28;19913;-68
2021/01/28 10:54:56;;;;;;;;;;;-0.80;99.90;;;;;;5074099;28;19982;-68
2021/01/28 10:57:22;;;;;;;;;;;-0.80;99.90;;;;;;5074521;28;20327;-68
2021/01/28 10:59:48;;;;;;;;;;;-0.70;99.90;;;;;;5078406;28;19920;-68
2021/01/28 11:02:14;;;;;;;;;;;-0.50;99.90;;;;;;5072074;28;19935;-68
2021/01/28 11:04:40;;;;;;;;;;;-0.50;99.90;;;;;;5074196;28;20365;-68
2021/01/28 11:07:06;;;;;;;;;;;-0.50;99.90;;;;;;5073413;28;19931;-68
2021/01/28 11:09:32;;;;;;;;;;;-0.50;99.90;;;;;;5075437;28;20385;-67
2021/01/28 11:11:58;;;;;;;;;;;-0.50;99.90;;;;;;5072457;28;19923;-67
2021/01/28 11:14:24;;;;;;;;;;;-0.40;99.90;;;;;;5071755;28;19917;-68
2021/01/28 11:16:50;;;;;;;;;;;-0.50;99.90;;;;;;5072778;28;19967;-68
2021/01/28 11:19:16;;;;;;;;;;;-0.50;99.90;;;;;;5070873;28;20384;-67
2021/01/28 11:21:42;;;;;;;;;;;-0.50;99.90;;;;;;5070860;28;20027;-68
2021/01/28 11:24:08;;;;;;;;;;;-0.40;99.90;;;;;;5072022;28;20019;-69
2021/01/28 11:26:34;;;;;;;;;;;-0.30;99.90;;;;;;5073004;28;20377;-68
2021/01/28 11:29:02;;;;;;;;;;;-0.30;99.90;;;;;;5070538;28;20396;-67
2021/01/28 11:31:28;;;;;;;;;;;-0.20;99.90;;;;;;5072538;28;20288;-68
2021/01/28 11:33:54;;;;;;;;;;;-0.10;99.90;;;;;;5070815;28;19916;-68
2021/01/28 11:36:20;;;;;;;;;;;0.00;99.90;;;;;;5072642;28;19916;-68
2021/01/28 11:38:45;;;;;;;;;;;0.10;99.90;;;;;;5072936;28;19932;-68
2021/01/28 11:41:11;;;;;;;;;;;0.20;99.90;;;;;;5073492;28;20107;-68
2021/01/28 11:43:37;;;;;;;;;;;0.20;99.90;;;;;;5072560;28;19920;-68
2021/01/28 11:46:03;;;;;;;;;;;0.10;99.90;;;;;;5073111;28;19908;-68
2021/01/28 11:48:29;;;;;;;;;;;0.20;99.90;;;;;;5072173;28;19919;-68
2021/01/28 11:50:55;;;;;;;;;;;0.20;99.90;;;;;;5073033;28;19912;-65
2021/01/28 11:53:21;;;;;;;;;;;0.30;99.90;;;;;;5054729;28;19927;-65
2021/01/28 11:55:47;;;;;;;;;;;0.40;99.90;;;;;;5072971;28;19917;-65
2021/01/28 11:58:13;;;;;;;;;;;0.50;99.90;;;;;;5072967;28;19925;-65
2021/01/28 12:00:39;;;;;;;;;;;0.60;99.90;;;;;;5073184;28;19912;-65
2021/01/28 12:03:05;;;;;;;;;;;0.70;99.90;;;;;;5073124;28;19935;-65
2021/01/28 12:05:31;;;;;;;;;;;0.70;99.90;;;;;;5081561;28;20375;-66
2021/01/28 12:07:57;;;;;;;;;;;0.70;99.90;;;;;;5090807;28;19920;-65
2021/01/28 12:10:24;;;;;;;;;;;0.70;99.90;;;;;;5074051;28;20293;-65
2021/01/28 12:12:50;;;;;;;;;;;0.70;99.90;;;;;;5082315;28;19912;-65
2021/01/28 12:15:16;;;;;;;;;;;0.70;99.90;;;;;;5071847;28;19944;-65
2021/01/28 12:17:42;;;;;;;;;;;0.70;99.90;;;;;;5081878;28;19927;-65
2021/01/28 12:20:09;;;;;;;;;;;0.70;99.90;;;;;;5083929;28;19928;-65
2021/01/28 12:22:35;;;;;;;;;;;0.70;99.90;;;;;;5074059;28;19912;-65
2021/01/28 12:25:01;;;;;;;;;;;0.70;99.90;;;;;;5080464;28;19989;-65
2021/01/28 12:27:27;;;;;;;;;;;0.50;99.90;;;;;;5081571;28;20296;-65
2021/01/28 12:29:55;;;;;;;;;;;0.50;99.90;;;;;;5074365;28;21387;-65
2021/01/28 12:32:20;;;;;;;;;;;0.40;99.90;;;;;;5082390;28;19916;-65
2021/01/28 12:34:46;;;;;;;;;;;0.40;99.90;;;;;;5073756;28;19928;-67
2021/01/28 12:37:14;;;;;;;;;;;0.30;99.90;;;;;;5083765;28;19935;-67
2021/01/28 12:39:40;;;;;;;;;;;0.20;99.90;;;;;;5072702;28;20286;-67
2021/01/28 12:42:06;;;;;;;;;;;0.20;99.90;;;;;;5073267;28;19919;-67
2021/01/28 12:44:32;;;;;;;;;;;0.00;99.90;;;;;;5075388;28;19919;-67
2021/01/28 12:46:58;;;;;;;;;;;0.00;99.90;;;;;;5091044;28;20369;-67
2021/01/28 12:49:24;;;;;;;;;;;0.00;99.90;;;;;;5074392;28;19924;-67
2021/01/28 12:51:53;;;;;;;;;;;-0.10;99.90;;;;;;5086907;28;19916;-67
2021/01/28 12:54:19;;;;;;;;;;;-0.10;99.90;;;;;;5084896;28;20297;-67
2021/01/28 12:56:45;;;;;;;;;;;-0.10;99.90;;;;;;5073942;28;19913;-67
2021/01/28 12:59:11;;;;;;;;;;;-0.10;99.90;;;;;;5071891;28;19928;-67
2021/01/28 13:01:37;;;;;;;;;;;-0.10;99.90;;;;;;5082416;28;19923;-67
2021/01/28 13:04:03;;;;;;;;;;;-0.10;99.90;;;;;;5072201;28;19912;-67
2021/01/28 13:06:29;;;;;;;;;;;-0.10;99.90;;;;;;5074698;28;19916;-67
2021/01/28 13:08:56;;;;;;;;;;;-0.10;99.90;;;;;;5072765;28;19913;-67
2021/01/28 13:11:22;;;;;;;;;;;-0.10;99.90;;;;;;5072060;28;19920;-67
2021/01/28 13:13:48;;;;;;;;;;;-0.20;99.90;;;;;;5074785;28;19908;-67
2021/01/28 13:16:14;;;;;;;;;;;-0.30;99.90;;;;;;5074486;28;19952;-67
2021/01/28 13:18:40;;;;;;;;;;;-0.40;99.90;;;;;;5075835;28;20015;-67
2021/01/28 13:21:06;;;;;;;;;;;-0.40;99.90;;;;;;5075891;28;20281;-67
2021/01/28 13:23:31;;;;;;;;;;;-0.40;99.90;;;;;;5076386;28;20427;-64
2021/01/28 13:25:58;;;;;;;;;;;-0.40;99.90;;;;;;5075449;28;20266;-68
2021/01/28 13:28:23;;;;;;;;;;;-0.40;99.90;;;;;;5076256;28;19920;-67
2021/01/28 13:30:49;;;;;;;;;;;-0.50;99.90;;;;;;5075471;28;19966;-67
2021/01/28 13:33:15;;;;;;;;;;;-0.50;99.90;;;;;;5074747;28;19917;-67
2021/01/28 13:35:41;;;;;;;;;;;-0.50;99.90;;;;;;5075570;28;19970;-67
2021/01/28 13:38:07;;;;;;;;;;;-0.50;99.90;;;;;;5075378;28;19924;-67
2021/01/28 13:40:33;;;;;;;;;;;-0.50;99.90;;;;;;5074812;28;19934;-67
2021/01/28 13:42:59;;;;;;;;;;;-0.50;99.90;;;;;;5074778;28;19912;-67
2021/01/28 13:45:26;;;;;;;;;;;-0.50;99.90;;;;;;5073529;28;20284;-67
2021/01/28 13:47:52;;;;;;;;;;;-0.40;99.90;;;;;;5074553;28;19915;-67
2021/01/28 13:50:19;;;;;;;;;;;-0.40;99.90;;;;;;5075266;28;19912;-67
2021/01/28 13:52:45;;;;;;;;;;;-0.30;99.90;;;;;;5074321;28;19920;-67
2021/01/28 13:55:11;;;;;;;;;;;-0.30;99.90;;;;;;5073839;28;19917;-67
2021/01/28 13:57:37;;;;;;;;;;;-0.30;99.90;;;;;;5075617;28;19916;-67
2021/01/28 14:00:04;;;;;;;;;;;-0.40;99.90;;;;;;5074621;28;19925;-67
2021/01/28 14:02:30;;;;;;;;;;;-0.40;99.90;;;;;;5074381;28;19912;-67
2021/01/28 14:04:56;;;;;;;;;;;-0.40;99.90;;;;;;5074914;28;20370;-67
2021/01/28 14:07:22;;;;;;;;;;;-0.50;99.90;;;;;;5074799;28;19923;-67
2021/01/28 14:09:48;;;;;;;;;;;-0.50;99.90;;;;;;5074700;28;20323;-67
2021/01/28 14:12:13;;;;;;;;;;;-0.50;99.90;;;;;;5073656;28;19927;-67
2021/01/28 14:14:39;;;;;;;;;;;-0.60;99.90;;;;;;5074788;28;19920;-67
2021/01/28 14:17:05;;;;;;;;;;;-0.60;99.90;;;;;;5074464;28;19912;-67
2021/01/28 14:19:32;;;;;;;;;;;-0.70;99.90;;;;;;5074559;28;19935;-67
2021/01/28 14:21:57;;;;;;;;;;;-0.70;99.90;;;;;;5074801;28;20278;-67
2021/01/28 14:24:23;;;;;;;;;;;-0.80;99.90;;;;;;5072311;28;19924;-67
2021/01/28 14:26:49;;;;;;;;;;;-0.80;99.90;;;;;;5074357;28;19931;-67
2021/01/28 14:29:15;;;;;;;;;;;-0.80;99.90;;;;;;5074137;28;20365;-67
2021/01/28 14:31:41;;;;;;;;;;;-0.80;99.90;;;;;;5074519;28;20381;-67
2021/01/28 14:34:07;;;;;;;;;;;-0.90;99.90;;;;;;5072225;28;19917;-67
2021/01/28 14:36:33;;;;;;;;;;;-0.90;99.90;;;;;;5074415;28;19912;-68